Latest Weather Observations for Montague Island

IDN60801

Issued at 10:35 pm EST Thursday 24 April 2014 (issued every 30 minutes, with the page automatically refreshed every 10 minutes)

About weather observations | Map of weather stations | Latest weather observations for NSW | Other Formats
Station Details ID: 069017 Name: MONTAGUE ISLAND LIGHTHOUSE Lat: -36.25 Lon: 150.23 Height: 52.0 m
Data from the previous 72 hours. | See also: Recent months at Montague Island
Date/Time
EST
Temp
°C
App
Temp
°C
Dew
Point
Rel
Hum
%
Delta-T
°C
Wind Press
QNH
hPa
Press
MSL
hPa
Rain
since 9 am
mm
Dir
 
Spd
km/h
Gust
km/h
Spd
kts
Gust
kts
24/10:30pm 15.8 7.1 8.3 61 3.8 SSW 44 56 24 30 1019.4 - 0.0
24/10:00pm 16.0 7.6 9.7 66 3.3 SSW 44 59 24 32 1019.1 1019.0 0.0
24/09:30pm 16.1 7.3 9.5 65 3.4 S 46 59 25 32 1018.8 - 0.0
24/09:00pm 16.6 8.1 10.7 68 3.1 S 46 57 25 31 1018.3 1018.2 0.0
24/08:30pm 16.8 8.1 10.0 64 3.6 SSW 46 59 25 32 1017.8 - 0.0
24/08:00pm 17.0 8.0 10.4 65 3.5 S 48 61 26 33 1017.4 1017.3 0.0
24/07:30pm 17.5 8.4 11.3 67 3.4 S 50 63 27 34 1016.7 - 0.0
24/07:00pm 17.7 8.6 12.6 72 2.8 S 52 63 28 34 1016.2 1016.1 0.0
24/06:30pm 18.0 9.5 13.1 73 2.8 S 50 65 27 35 1015.8 - 0.0
24/06:00pm 18.5 10.6 13.8 74 2.7 S 48 59 26 32 1014.9 1014.7 0.0
24/05:30pm 18.8 11.4 13.2 70 3.2 S 44 54 24 29 1014.3 - 0.0
24/05:00pm 19.3 12.4 13.9 71 3.1 S 43 52 23 28 1013.5 1013.3 0.0
24/04:30pm 20.0 13.4 13.7 67 3.6 SSE 41 52 22 28 1012.9 - 0.0
24/04:00pm 20.4 13.2 14.7 70 3.3 SSE 46 56 25 30 1012.3 1012.2 0.0
24/03:45pm 22.1 15.8 14.5 62 4.5 SE 41 44 22 24 1011.9 - 0.0
24/03:30pm 22.7 20.2 14.0 58 5.1 SE 20 26 11 14 1011.7 - 0.0
24/03:00pm 22.8 19.4 13.8 57 5.3 SE 24 28 13 15 1011.3 1011.2 0.0
24/02:30pm 23.3 21.4 14.3 57 5.3 SE 17 20 9 11 1011.0 - 0.0
24/02:00pm 23.3 22.4 13.8 55 5.6 SE 11 19 6 10 1010.5 1010.4 0.0
24/01:30pm 23.6 22.7 13.8 54 5.7 ESE 11 15 6 8 1010.4 - 0.0
24/01:00pm 23.2 22.5 15.3 61 4.7 ESE 13 17 7 9 1010.3 1010.2 0.0
24/12:30pm 23.0 23.0 16.3 66 4.1 ESE 11 13 6 7 1010.4 - 0.0
24/12:00pm 23.2 23.7 17.4 70 3.6 SE 11 17 6 9 1010.7 1010.6 0.0
24/11:30am 23.1 22.9 13.6 55 5.5 SE 7 11 4 6 1010.9 - 0.0
24/11:00am 24.0 24.5 15.0 57 5.4 WSW 6 9 3 5 1011.1 1011.0 0.0
24/10:30am 23.6 22.7 12.6 50 6.3 NW 9 13 5 7 1011.1 - 0.0
24/10:00am 21.8 20.3 13.2 58 4.9 WNW 13 19 7 10 1011.1 1011.0 0.0
24/09:30am 21.6 21.7 13.8 61 4.5 NW 6 11 3 6 1011.1 - 0.0
24/09:00am 20.9 21.8 15.2 70 3.4 N 4 7 2 4 1011.1 1011.0 0.2
24/08:30am 21.0 21.3 14.6 67 3.8 N 6 7 3 4 1010.8 - 0.2
24/08:00am 20.3 21.0 15.5 74 2.9 W 6 7 3 4 1010.5 1010.4 0.2
24/07:30am 20.4 20.9 15.6 74 2.9 NNW 7 11 4 6 1010.1 - 0.2
24/07:00am 20.1 20.2 15.5 75 2.7 NNW 9 13 5 7 1009.7 1009.6 0.2
24/06:30am 20.1 18.9 14.0 68 3.5 NNW 13 17 7 9 1009.7 - 0.2
24/06:00am 20.0 19.1 14.8 72 3.1 NW 13 15 7 8 1009.7 1009.6 0.2
24/05:30am 19.8 19.7 16.1 79 2.2 NNW 11 13 6 7 1009.7 - 0.2
24/05:00am 20.4 19.1 13.6 65 3.9 NNW 13 15 7 8 1009.9 1009.8 0.2
24/04:30am 20.1 19.7 14.0 68 3.5 NNW 9 11 5 6 1010.0 - 0.2
24/04:00am 20.1 18.8 13.6 66 3.7 NNW 13 15 7 8 1010.0 1009.9 0.2
24/03:30am 20.1 19.2 13.6 66 3.7 NW 11 15 6 8 1010.0 - 0.2
24/03:00am 20.1 18.4 12.6 62 4.2 NW 13 15 7 8 1010.1 1010.0 0.2
24/02:30am 20.2 18.9 12.4 61 4.4 WNW 11 17 6 9 1010.5 - 0.2
24/02:00am 20.3 18.7 12.8 62 4.3 NW 13 17 7 9 1010.8 1010.7 0.2
24/01:30am 20.4 19.9 13.8 66 3.8 NW 9 15 5 8 1011.0 - 0.2
24/01:00am 20.4 20.6 14.7 70 3.3 NW 7 9 4 5 1011.1 1011.0 0.2
24/12:30am 21.2 20.7 14.8 67 3.8 NW 11 20 6 11 1011.3 - 0.2
24/12:00am 21.9 19.9 13.8 60 4.7 NNW 17 22 9 12 1011.6 1011.5 0.2
 
Date/Time
EST
Temp
°C
App
Temp
°C
Dew
Point
Rel
Hum
%
Delta-T
°C
Wind Press
QNH
hPa
Press
MSL
hPa
Rain
since 9 am
mm
Dir
 
Spd
km/h
Gust
km/h
Spd
kts
Gust
kts
23/11:30pm 22.1 19.8 14.2 61 4.6 NNW 19 22 10 12 1011.7 - 0.2
23/11:00pm 22.4 19.1 12.9 55 5.5 NNW 22 30 12 16 1011.8 1011.7 0.2
23/10:30pm 22.1 18.9 13.2 57 5.1 NNW 22 28 12 15 1012.0 - 0.2
23/10:00pm 22.1 18.5 13.2 57 5.1 NNW 24 28 13 15 1012.3 1012.2 0.2
23/09:30pm 22.0 19.4 13.9 60 4.7 NNW 20 24 11 13 1012.5 - 0.2
23/09:00pm 21.6 18.4 13.0 58 4.9 NNW 22 28 12 15 1012.5 1012.4 0.2
23/08:30pm 21.5 18.6 13.9 62 4.4 NNW 22 26 12 14 1012.5 - 0.2
23/08:00pm 21.2 19.1 14.6 66 3.9 NW 19 24 10 13 1012.6 1012.5 0.2
23/07:30pm 21.8 19.3 14.2 62 4.4 NW 20 28 11 15 1012.7 - 0.2
23/07:00pm 22.2 18.4 14.6 62 4.5 NNW 28 33 15 18 1012.5 1012.4 0.2
23/06:30pm 22.6 19.4 14.2 59 4.9 NNW 24 32 13 17 1012.0 - 0.2
23/06:00pm 22.4 19.9 18.0 76 2.7 N 28 35 15 19 1012.0 1011.9 0.2
23/05:30pm 22.4 18.9 17.8 75 2.9 N 33 43 18 23 1011.8 - 0.2
23/05:00pm 21.9 19.0 19.3 85 1.7 NNE 33 41 18 22 1011.5 1011.4 0.2
23/04:30pm 21.8 17.3 19.0 84 1.8 N 41 46 22 25 1011.4 - 0.2
23/04:00pm 22.3 17.6 17.7 75 2.9 N 39 48 21 26 1011.4 1011.3 0.2
23/03:30pm 22.3 19.4 17.9 76 2.7 NNE 30 37 16 20 1011.8 - 0.2
23/03:00pm 22.3 18.3 16.8 71 3.4 NNE 33 41 18 22 1011.8 1011.7 0.2
23/02:30pm 21.8 16.5 16.3 71 3.3 NNE 39 44 21 24 1011.9 - 0.2
23/02:00pm 21.2 16.6 17.2 78 2.5 NNE 37 44 20 24 1012.0 1011.9 0.2
23/01:30pm 21.0 19.1 17.6 81 2.1 NNE 24 30 13 16 1012.7 - 0.2
23/01:00pm 21.1 18.3 15.4 70 3.4 N 24 33 13 18 1013.2 1013.0 0.2
23/12:30pm 20.4 18.8 17.4 83 1.8 N 22 28 12 15 1013.9 - 0.2
23/12:00pm 20.4 19.2 17.6 84 1.7 N 20 26 11 14 1014.6 1014.4 0.2
23/11:30am 20.0 19.7 17.4 85 1.6 NNE 15 19 8 10 1015.2 - 0.2
23/11:00am 19.7 20.5 16.3 81 2.0 NNE 7 9 4 5 1016.0 1015.9 0.2
23/10:30am 19.9 21.3 16.5 81 2.1 N 4 9 2 5 1016.4 - 0.2
23/10:00am 19.4 20.5 15.7 79 2.2 ESE 4 7 2 4 1016.8 1016.7 0.2
23/09:30am 19.5 19.2 15.4 77 2.4 S 11 13 6 7 1017.0 - 0.0
23/09:00am 19.3 17.8 14.3 73 2.9 SSW 15 19 8 10 1016.8 1016.7 -
23/08:30am 19.3 16.1 14.3 73 2.9 SW 24 28 13 15 1016.9 - -
23/08:00am 18.9 15.6 14.0 73 2.8 SW 24 30 13 16 1016.8 1016.7 -
23/07:30am 18.2 14.7 14.5 79 2.1 SW 26 32 14 17 1016.9 - -
23/07:00am 18.0 13.4 14.7 81 1.9 SW 32 37 17 20 1016.8 1016.7 -
23/06:30am 18.1 15.5 15.0 82 1.8 SW 22 30 12 16 1016.1 - -
23/06:00am 18.1 14.7 14.8 81 1.9 SW 26 32 14 17 1016.0 1015.9 -
23/05:30am 18.0 15.0 14.7 81 1.9 SW 24 33 13 18 1016.0 - -
23/05:00am 18.4 15.3 15.5 83 1.7 SW 26 32 14 17 1016.0 1015.9 -
23/04:30am 19.1 16.1 16.9 87 1.3 S 28 33 15 18 1015.9 - -
23/04:00am 19.0 16.4 16.8 87 1.3 S 26 35 14 19 1015.7 1015.6 -
23/03:30am 18.4 14.5 15.6 84 1.7 SW 30 37 16 20 1015.8 - -
23/03:00am 18.4 14.5 15.6 84 1.7 SW 30 37 16 20 1015.6 1015.4 0.0
23/02:30am 18.7 15.3 15.9 84 1.7 SW 28 33 15 18 1016.0 - -
23/02:00am 18.9 16.4 16.1 84 1.7 SW 24 30 13 16 1015.8 1015.7 -
23/01:30am 19.4 17.3 15.1 76 2.5 SSW 20 26 11 14 1015.9 - -
23/01:00am 19.5 16.9 13.7 69 3.3 SW 20 24 11 13 1016.1 1016.0 -
23/12:30am 19.6 19.0 14.6 73 2.9 SSW 11 13 6 7 1015.9 - -
23/12:00am 19.3 18.9 14.1 72 3.0 SW 9 9 5 5 1015.8 1015.7 -
 
Date/Time
EST
Temp
°C
App
Temp
°C
Dew
Point
Rel
Hum
%
Delta-T
°C
Wind Press
QNH
hPa
Press
MSL
hPa
Rain
since 9 am
mm
Dir
 
Spd
km/h
Gust
km/h
Spd
kts
Gust
kts
22/11:30pm 19.0 18.7 14.5 75 2.6 W 9 11 5 6 1015.6 - -
22/11:00pm 18.7 18.0 14.4 76 2.5 W 11 13 6 7 1015.7 1015.6 -
22/10:30pm 19.0 18.4 14.7 76 2.5 WSW 11 15 6 8 1015.8 - -
22/10:00pm 18.9 17.9 14.6 76 2.5 WSW 13 17 7 9 1015.9 1015.8 -
22/09:30pm 19.2 18.4 15.1 77 2.4 WSW 13 15 7 8 1015.8 - -
22/09:00pm 19.1 18.1 14.6 75 2.6 W 13 15 7 8 1015.7 1015.6 0.0
22/08:30pm 19.9 17.6 14.7 72 3.0 WSW 20 26 11 14 1015.5 - -
22/08:00pm 19.9 17.5 14.5 71 3.1 WSW 20 28 11 15 1015.3 1015.1 -
22/07:30pm 20.0 16.9 14.6 71 3.2 WSW 24 32 13 17 1015.2 - -
22/07:00pm 20.1 16.7 14.7 71 3.2 SW 26 32 14 17 1014.9 1014.7 -
22/06:30pm 20.2 16.4 14.8 71 3.2 SW 28 33 15 18 1014.7 - -
22/06:00pm 20.2 15.4 14.6 70 3.3 SW 33 41 18 22 1014.3 1014.1 -
22/05:30pm 20.9 17.0 15.4 71 3.3 SW 30 35 16 19 1014.1 - -
22/05:00pm 21.1 18.3 15.4 70 3.4 SSW 24 28 13 15 1014.0 1013.8 -
22/04:30pm 21.5 19.5 16.5 73 3.0 SSW 22 28 12 15 1013.8 - -
22/04:00pm 21.8 21.2 14.7 64 4.2 SSW 11 15 6 8 1013.9 1013.7 -
22/03:30pm 22.0 22.3 13.4 58 5.0 SE 4 6 2 3 1013.7 - -
22/03:00pm 22.7 22.7 13.7 56 5.2 WNW 6 7 3 4 1013.7 1013.5 -
22/02:30pm 22.6 20.2 13.7 57 5.2 N 19 26 10 14 1012.8 - -
22/02:00pm 22.4 19.7 13.5 57 5.2 N 20 26 11 14 1012.6 1012.5 -
22/01:30pm 22.2 19.2 12.5 54 5.5 N 20 26 11 14 1012.9 - -
22/01:00pm 22.6 19.9 12.8 54 5.6 N 19 26 10 14 1013.3 1013.1 -
22/12:30pm 22.6 20.5 13.7 57 5.2 N 17 22 9 12 1013.9 - -
22/12:00pm 21.8 18.0 12.4 55 5.3 NNW 24 28 13 15 1014.4 1014.2 0.0
22/11:30am 21.0 18.0 12.4 58 4.9 NNW 20 26 11 14 1014.7 - 0.0
22/11:00am 20.3 17.9 12.5 61 4.4 NNW 17 20 9 11 1015.0 1014.8 0.0
22/10:30am 19.9 19.2 14.3 70 3.3 N 11 15 6 8 1015.3 - 0.0
22/10:00am 19.5 18.0 13.2 67 3.6 NNW 13 17 7 9 1015.6 1015.4 0.0
22/09:30am 18.9 17.6 13.7 72 3.0 N 13 15 7 8 1015.6 - 0.0
22/09:00am 18.3 16.5 13.4 73 2.8 NNW 15 19 8 10 1015.8 1015.7 0.0
22/08:30am 17.3 14.8 12.4 73 2.7 NNW 17 20 9 11 1015.9 - 0.0
22/08:00am 17.0 14.6 12.5 75 2.5 NNW 17 20 9 11 1015.8 1015.7 0.0
22/07:30am 17.3 14.0 12.8 75 2.5 NNW 22 26 12 14 1015.8 - 0.0
22/07:00am 17.2 13.6 12.9 76 2.4 N 24 26 13 14 1015.4 1015.2 0.0
22/06:30am 16.8 13.1 12.7 77 2.3 N 24 30 13 16 1015.5 - 0.0
22/06:00am 16.5 13.5 12.5 77 2.2 N 20 26 11 14 1015.4 1015.2 0.0
22/05:30am 16.4 13.8 13.1 81 1.8 NNW 19 22 10 12 1015.4 - 0.0
22/05:00am 16.1 13.9 13.2 83 1.6 NNW 17 20 9 11 1015.5 1015.3 0.0
22/04:30am 16.6 14.0 13.9 84 1.5 NNW 20 24 11 13 1015.6 - 0.0
22/04:00am 17.0 14.1 13.9 82 1.8 NNW 22 28 12 15 1015.6 1015.4 0.0
22/03:30am 17.2 13.6 14.3 83 1.7 NNW 26 30 14 16 1015.7 - 0.0
22/03:00am 17.5 14.4 14.4 82 1.8 NNW 24 30 13 16 1015.8 1015.7 0.0
22/02:30am 17.6 14.0 14.3 81 1.9 NNW 26 33 14 18 1016.1 - 0.0
22/02:00am 17.6 13.7 13.3 76 2.4 N 26 33 14 18 1016.3 1016.2 0.0
22/01:30am 17.9 14.2 14.0 78 2.2 N 26 33 14 18 1016.7 - 0.0
22/01:00am 18.5 14.0 14.8 79 2.2 NNW 32 41 17 22 1017.1 1017.0 0.0
22/12:30am 18.6 15.0 15.3 81 1.9 N 28 41 15 22 1017.4 - 0.0
22/12:00am 18.6 14.9 15.1 80 2.0 N 28 37 15 20 1017.4 1017.3 0.0
 
Date/Time
EST
Temp
°C
App
Temp
°C
Dew
Point
Rel
Hum
%
Delta-T
°C
Wind Press
QNH
hPa
Press
MSL
hPa
Rain
since 9 am
mm
Dir
 
Spd
km/h
Gust
km/h
Spd
kts
Gust
kts
21/11:30pm 18.7 14.9 14.8 78 2.3 N 28 35 15 19 1017.9 - 0.0
21/11:00pm 18.7 15.7 14.8 78 2.3 N 24 32 13 17 1018.1 1018.0 0.0

Other Formats:

Comma delimited format used in spreadsheet applications
http://www.bom.gov.au/fwo/IDN60801/IDN60801.94939.axf

JavaScript Object Notation format (JSON) in row-major order
http://www.bom.gov.au/fwo/IDN60801/IDN60801.94939.json